createdAt,value
2018-01-15T00:00:24.467Z,102144.73
2018-01-15T00:02:50.281Z,102145.61
2018-01-15T00:05:16.097Z,102144.53
2018-01-15T00:07:41.933Z,102137.81
2018-01-15T00:10:07.747Z,102138.73
2018-01-15T00:12:33.557Z,102129.92
2018-01-15T00:14:59.391Z,102128.98
2018-01-15T00:17:25.201Z,102122.25
2018-01-15T00:19:51.018Z,102114.13
2018-01-15T00:22:16.834Z,102110.72
2018-01-15T00:24:42.655Z,102110.59
2018-01-15T00:27:08.534Z,102111.06
2018-01-15T00:29:34.351Z,102110.26
2018-01-15T00:32:00.173Z,102104.58
2018-01-15T00:34:25.985Z,102100.63
2018-01-15T00:36:51.805Z,102104.69
2018-01-15T00:39:17.618Z,102098.42
2018-01-15T00:41:43.439Z,102097.19
2018-01-15T00:44:09.258Z,102103.59
2018-01-15T00:46:35.079Z,102101.39
2018-01-15T00:49:00.935Z,102099.36
2018-01-15T00:51:26.766Z,102097.92
2018-01-15T00:53:52.590Z,102098.34
2018-01-15T00:56:18.439Z,102107.38
2018-01-15T00:58:44.253Z,102109.19
2018-01-15T01:01:10.114Z,102097.03
2018-01-15T01:03:35.958Z,102085.20
2018-01-15T01:06:01.778Z,102078.97
2018-01-15T01:08:27.642Z,102068.69
2018-01-15T01:10:53.453Z,102070.17
2018-01-15T01:13:19.522Z,102061.47
2018-01-15T01:15:45.353Z,102061.05
2018-01-15T01:18:11.169Z,102066.27
2018-01-15T01:20:37.062Z,102062.37
2018-01-15T01:23:02.883Z,102058.94
2018-01-15T01:25:28.712Z,102053.55
2018-01-15T01:27:54.520Z,102046.64
2018-01-15T01:30:20.370Z,102047.52
2018-01-15T01:32:46.194Z,102044.95
2018-01-15T01:35:12.045Z,102036.30
2018-01-15T01:37:37.861Z,102043.37
2018-01-15T01:40:03.728Z,102033.11
2018-01-15T01:42:29.546Z,102020.30
2018-01-15T01:44:55.395Z,102024.76
2018-01-15T01:47:21.250Z,102018.66
2018-01-15T01:49:47.061Z,102007.62
2018-01-15T01:52:12.917Z,102010.77
2018-01-15T01:54:38.742Z,101999.31
2018-01-15T01:57:04.599Z,102001.52
2018-01-15T01:59:30.415Z,101998.51
2018-01-15T02:01:56.226Z,101992.58
2018-01-15T02:04:22.055Z,101992.70
2018-01-15T02:06:47.874Z,101982.56
2018-01-15T02:09:13.682Z,101979.69
2018-01-15T02:11:39.499Z,101968.23
2018-01-15T02:14:05.354Z,101961.37
2018-01-15T02:16:31.206Z,101967.39
2018-01-15T02:18:57.061Z,101964.12
2018-01-15T02:21:22.902Z,101956.91
2018-01-15T02:23:49.664Z,101954.16
2018-01-15T02:26:16.433Z,101952.00
2018-01-15T02:28:42.243Z,101952.42
2018-01-15T02:31:16.013Z,101950.42
2018-01-15T02:33:41.854Z,101943.73
2018-01-15T02:36:07.696Z,101931.47
2018-01-15T02:38:34.306Z,101933.47
2018-01-15T02:41:01.117Z,101929.52
2018-01-15T02:43:27.745Z,101930.88
2018-01-15T02:45:54.501Z,101927.23
2018-01-15T02:48:20.346Z,101929.02
2018-01-15T02:50:46.168Z,101932.31
2018-01-15T02:53:12.797Z,101930.28
2018-01-15T02:55:39.577Z,101920.66
2018-01-15T02:58:05.577Z,101916.17
2018-01-15T03:00:31.398Z,101903.27
2018-01-15T03:02:57.216Z,101898.53
2018-01-15T03:05:23.038Z,101891.28
2018-01-15T03:07:48.857Z,101894.16
2018-01-15T03:10:15.528Z,101890.27
2018-01-15T03:12:41.337Z,101882.50
2018-01-15T03:15:07.153Z,101884.71
2018-01-15T03:17:32.966Z,101891.66
2018-01-15T03:19:58.798Z,101884.69
2018-01-15T03:22:24.614Z,101884.87
2018-01-15T03:24:50.427Z,101871.02
2018-01-15T03:27:16.233Z,101867.41
2018-01-15T03:29:42.061Z,101869.96
2018-01-15T03:32:08.889Z,101864.87
2018-01-15T03:34:34.705Z,101857.75
2018-01-15T03:37:00.513Z,101858.22
2018-01-15T03:39:26.326Z,101861.01
2018-01-15T03:41:52.128Z,101855.17
2018-01-15T03:44:17.943Z,101846.36
2018-01-15T03:46:43.756Z,101836.68
2018-01-15T03:49:09.566Z,101824.73
2018-01-15T03:51:35.377Z,101826.30
2018-01-15T03:54:01.190Z,101820.56
2018-01-15T03:56:26.993Z,101811.36
2018-01-15T03:58:53.704Z,101811.34
2018-01-15T04:01:19.517Z,101812.17
2018-01-15T04:03:45.322Z,101817.99
2018-01-15T04:06:11.134Z,101817.80
2018-01-15T04:08:36.977Z,101812.92
2018-01-15T04:11:02.786Z,101817.30
2018-01-15T04:13:29.631Z,101810.55
2018-01-15T04:15:55.458Z,101804.97
2018-01-15T04:18:22.097Z,101795.90
2018-01-15T04:20:47.945Z,101792.86
2018-01-15T04:23:14.138Z,101788.83
2018-01-15T04:25:39.989Z,101790.13
2018-01-15T04:28:05.834Z,101786.14
2018-01-15T04:30:31.644Z,101776.28
2018-01-15T04:32:58.406Z,101780.28
2018-01-15T04:35:25.129Z,101768.55
2018-01-15T04:37:50.953Z,101767.95
2018-01-15T04:40:16.809Z,101768.84
2018-01-15T04:42:43.518Z,101770.52
2018-01-15T04:45:09.342Z,101763.89
2018-01-15T04:47:35.175Z,101749.67
2018-01-15T04:50:01.125Z,101755.59
2018-01-15T04:52:26.933Z,101749.67
2018-01-15T04:54:52.752Z,101743.20
2018-01-15T04:57:19.530Z,101735.91
2018-01-15T04:59:46.237Z,101738.16
2018-01-15T05:02:12.053Z,101736.62
2018-01-15T05:04:38.677Z,101736.67
2018-01-15T05:07:05.476Z,101741.03
2018-01-15T05:09:32.119Z,101739.14
2018-01-15T05:11:57.938Z,101731.39
2018-01-15T05:14:24.565Z,101722.86
2018-01-15T05:16:51.350Z,101718.87
2018-01-15T05:19:18.117Z,101723.19
2018-01-15T05:21:43.969Z,101711.69
2018-01-15T05:24:10.783Z,101713.24
2018-01-15T05:26:37.906Z,101709.72
2018-01-15T05:29:03.751Z,101708.45
2018-01-15T05:31:30.610Z,101702.58
2018-01-15T05:33:57.357Z,101701.65
2018-01-15T05:36:23.205Z,101698.79
2018-01-15T05:38:49.854Z,101696.95
2018-01-15T05:41:15.667Z,101701.22
2018-01-15T05:43:42.357Z,101699.34
2018-01-15T05:46:08.161Z,101696.67
2018-01-15T05:48:34.799Z,101690.42
2018-01-15T05:51:01.530Z,101685.31
2018-01-15T05:53:28.205Z,101679.53
2018-01-15T05:55:54.927Z,101677.52
2018-01-15T05:58:20.791Z,101680.34
2018-01-15T06:00:47.637Z,101676.72
2018-01-15T06:03:14.541Z,101678.38
2018-01-15T06:05:41.321Z,101672.16
2018-01-15T06:08:07.136Z,101669.26
2018-01-15T06:10:33.961Z,101671.78
2018-01-15T06:13:00.731Z,101661.22
2018-01-15T06:15:27.403Z,101664.66
2018-01-15T06:17:53.245Z,101670.01
2018-01-15T06:20:19.046Z,101669.68
2018-01-15T06:22:44.894Z,101672.16
2018-01-15T06:25:10.778Z,101658.41
2018-01-15T06:27:37.389Z,101652.86
2018-01-15T06:30:03.206Z,101643.38
2018-01-15T06:32:29.013Z,101647.90
2018-01-15T06:34:54.841Z,101640.20
2018-01-15T06:37:21.562Z,101631.97
2018-01-15T06:39:47.421Z,101631.28
2018-01-15T06:42:14.290Z,101628.70
2018-01-15T06:44:40.106Z,101631.05
2018-01-15T06:47:05.917Z,101631.52
2018-01-15T06:49:31.721Z,101629.45
2018-01-15T06:51:57.529Z,101625.31
2018-01-15T06:54:23.374Z,101628.73
2018-01-15T06:56:49.188Z,101630.16
2018-01-15T06:59:15.042Z,101615.45
2018-01-15T07:01:40.866Z,101620.77
2018-01-15T07:04:06.680Z,101629.41
2018-01-15T07:06:32.490Z,101613.17
2018-01-15T07:08:59.261Z,101621.75
2018-01-15T07:11:25.071Z,101615.42
2018-01-15T07:13:51.726Z,101615.70
2018-01-15T07:16:17.538Z,101610.02
2018-01-15T07:18:43.346Z,101615.38
2018-01-15T07:21:10.029Z,101606.18
2018-01-15T07:23:35.861Z,101609.88
2018-01-15T07:26:01.671Z,101606.83
2018-01-15T07:28:27.538Z,101606.83
2018-01-15T07:30:53.361Z,101607.25
2018-01-15T07:33:19.165Z,101606.64
2018-01-15T07:35:45.030Z,101604.98
2018-01-15T07:38:11.841Z,101607.39
2018-01-15T07:40:38.554Z,101603.31
2018-01-15T07:43:04.409Z,101598.77
2018-01-15T07:45:31.085Z,101592.05
2018-01-15T07:47:56.890Z,101589.75
2018-01-15T07:50:23.586Z,101589.66
2018-01-15T07:52:50.445Z,101586.00
2018-01-15T07:55:17.149Z,101583.27
2018-01-15T07:57:43.889Z,101576.55
2018-01-15T08:00:16.690Z,101574.20
2018-01-15T08:02:43.413Z,101571.72
2018-01-15T08:05:10.237Z,101562.20
2018-01-15T08:07:36.049Z,101570.47
2018-01-15T08:10:02.834Z,101559.67
2018-01-15T08:12:28.679Z,101553.30
2018-01-15T08:14:55.409Z,101543.31
2018-01-15T08:17:21.248Z,101537.28
2018-01-15T08:19:47.881Z,101540.38
2018-01-15T08:22:13.686Z,101534.43
2018-01-15T08:24:40.466Z,101527.48
2018-01-15T08:27:06.330Z,101530.03
2018-01-15T08:29:32.169Z,101522.84
2018-01-15T08:31:57.985Z,101515.14
2018-01-15T08:34:24.890Z,101520.16
2018-01-15T08:36:51.486Z,101511.29
2018-01-15T08:39:17.298Z,101503.98
2018-01-15T08:41:44.090Z,101503.19
2018-01-15T08:44:09.961Z,101500.62
2018-01-15T08:46:36.645Z,101490.27
2018-01-15T08:49:02.704Z,101485.03
2018-01-15T08:51:29.315Z,101484.05
2018-01-15T08:53:55.233Z,101481.96
2018-01-15T08:56:21.905Z,101479.67
2018-01-15T08:58:47.714Z,101483.86
2018-01-15T09:01:13.565Z,101477.81
2018-01-15T09:03:40.361Z,101475.37
2018-01-15T09:06:06.202Z,101477.45
2018-01-15T09:08:32.014Z,101474.48
2018-01-15T09:10:58.867Z,101467.42
2018-01-15T09:13:24.681Z,101462.73
2018-01-15T09:15:51.482Z,101459.91
2018-01-15T09:18:17.281Z,101462.59
2018-01-15T09:20:44.156Z,101456.03
2018-01-15T09:23:10.797Z,101452.80
2018-01-15T09:25:37.461Z,101450.01
2018-01-15T09:28:03.285Z,101449.90
2018-01-15T09:30:29.093Z,101441.48
2018-01-15T09:32:55.221Z,101438.44
2018-01-15T09:35:21.031Z,101440.30
2018-01-15T09:37:46.837Z,101440.30
2018-01-15T09:40:12.681Z,101434.50
2018-01-15T09:42:39.473Z,101434.55
2018-01-15T09:45:06.267Z,101421.41
2018-01-15T09:47:33.006Z,101431.15
2018-01-15T09:49:59.757Z,101428.69
2018-01-15T09:52:25.574Z,101412.48
2018-01-15T09:54:51.417Z,101416.38
2018-01-15T09:57:18.254Z,101413.92
2018-01-15T09:59:45.393Z,101411.95
2018-01-15T10:02:11.205Z,101395.98
2018-01-15T10:04:37.013Z,101388.74
2018-01-15T10:07:02.834Z,101384.43
2018-01-15T10:09:29.609Z,101380.31
2018-01-15T10:11:55.414Z,101377.55
2018-01-15T10:14:21.257Z,101368.47
2018-01-15T10:16:47.070Z,101364.93
2018-01-15T10:19:13.034Z,101353.88
2018-01-15T10:21:39.288Z,101343.40
2018-01-15T10:24:08.127Z,101333.73
2018-01-15T10:26:34.118Z,101329.16
2018-01-15T10:28:59.915Z,101314.08
2018-01-15T10:31:25.730Z,101314.34
2018-01-15T10:33:51.528Z,101302.72
2018-01-15T10:36:17.507Z,101295.09
2018-01-15T10:38:43.309Z,101307.13
2018-01-15T10:41:09.267Z,101305.19
2018-01-15T10:43:35.103Z,101298.40
2018-01-15T10:46:00.906Z,101290.57
2018-01-15T10:48:26.713Z,101283.73
2018-01-15T10:50:52.513Z,101284.58
2018-01-15T10:53:18.329Z,101275.58
2018-01-15T10:55:44.132Z,101274.04
2018-01-15T10:58:09.934Z,101263.79
2018-01-15T11:00:41.766Z,101265.23
2018-01-15T11:03:07.582Z,101255.09
2018-01-15T11:05:33.393Z,101243.84
2018-01-15T11:07:59.286Z,101242.79
2018-01-15T11:10:25.112Z,101237.08
2018-01-15T11:12:50.918Z,101224.02
2018-01-15T11:15:16.762Z,101221.02
2018-01-15T11:17:42.574Z,101209.59
2018-01-15T11:20:08.477Z,101195.71
2018-01-15T11:22:34.714Z,101190.94
2018-01-15T11:25:01.603Z,101189.27
2018-01-15T11:27:27.423Z,101176.14
2018-01-15T11:29:53.276Z,101171.10
2018-01-15T11:32:19.083Z,101169.09
2018-01-15T11:34:44.902Z,101158.70
2018-01-15T11:37:10.706Z,101165.23
2018-01-15T11:39:37.553Z,101150.36
2018-01-15T11:42:03.475Z,101156.58
2018-01-15T11:44:29.346Z,101147.03
2018-01-15T11:46:55.154Z,101141.30
2018-01-15T11:49:22.002Z,101133.05
2018-01-15T11:51:47.842Z,101124.55
2018-01-15T11:54:13.665Z,101110.63
2018-01-15T11:56:39.519Z,101106.62
2018-01-15T11:59:05.321Z,101106.75
2018-01-15T12:01:31.213Z,101101.25
2018-01-15T12:03:57.050Z,101107.17
2018-01-15T12:06:22.952Z,101091.43
2018-01-15T12:08:48.797Z,101093.09
2018-01-15T12:11:14.607Z,101081.98
2018-01-15T12:13:40.452Z,101072.91
2018-01-15T12:16:06.257Z,101068.21
2018-01-15T12:18:32.093Z,101068.11
2018-01-15T12:20:57.939Z,101052.33
2018-01-15T12:23:23.893Z,101050.72
2018-01-15T12:25:49.786Z,101031.84
2018-01-15T12:28:15.589Z,101027.09
2018-01-15T12:30:42.336Z,101018.96
2018-01-15T12:33:08.137Z,101005.90
2018-01-15T12:35:34.014Z,100990.91
2018-01-15T12:38:00.745Z,100972.32
2018-01-15T12:40:26.579Z,100971.90
2018-01-15T12:42:52.400Z,100964.72
2018-01-15T12:45:19.061Z,100962.52
2018-01-15T12:47:45.741Z,100962.35
2018-01-15T12:50:11.542Z,100958.67
2018-01-15T12:52:37.387Z,100952.36
2018-01-15T12:55:03.201Z,100959.17
2018-01-15T12:57:29.835Z,100963.57
2018-01-15T12:59:55.637Z,100957.26
2018-01-15T13:02:22.445Z,100950.86
2018-01-15T13:04:48.475Z,100958.28
2018-01-15T13:07:20.418Z,100948.87
2018-01-15T13:09:47.201Z,100945.06
2018-01-15T13:12:13.906Z,100929.45
2018-01-15T13:14:39.715Z,100921.58
2018-01-15T13:17:05.519Z,100924.09
2018-01-15T13:19:31.329Z,100919.84
2018-01-15T13:21:57.175Z,100923.02
2018-01-15T13:24:22.989Z,100913.52
2018-01-15T13:26:48.834Z,100909.73
2018-01-15T13:29:14.634Z,100902.65
2018-01-15T13:31:40.438Z,100892.89
2018-01-15T13:34:06.254Z,100880.23
2018-01-15T13:36:33.098Z,100870.97
2018-01-15T13:38:59.826Z,100870.19
2018-01-15T13:41:26.642Z,100864.10
2018-01-15T13:43:52.441Z,100863.31
2018-01-15T13:46:18.245Z,100861.23
2018-01-15T13:48:44.041Z,100867.45
2018-01-15T13:51:09.842Z,100865.94
2018-01-15T13:53:42.649Z,100866.12
2018-01-15T13:56:08.458Z,100860.39
2018-01-15T13:58:34.261Z,100858.24
2018-01-15T14:01:00.138Z,100850.19
2018-01-15T14:03:25.985Z,100843.95
2018-01-15T14:05:51.911Z,100836.49
2018-01-15T14:08:17.756Z,100836.63
2018-01-15T14:10:44.410Z,100839.55
2018-01-15T14:13:10.246Z,100841.55
2018-01-15T14:15:36.895Z,100835.52
2018-01-15T14:18:03.526Z,100836.66
2018-01-15T14:20:29.362Z,100812.34
2018-01-15T14:22:55.206Z,100810.36
2018-01-15T14:25:22.062Z,100802.53
2018-01-15T14:27:47.910Z,100790.34
2018-01-15T14:30:13.714Z,100781.50
2018-01-15T14:32:39.561Z,100778.87
2018-01-15T14:35:05.381Z,100773.38
2018-01-15T14:37:32.254Z,100785.05
2018-01-15T14:39:58.159Z,100778.87
2018-01-15T14:42:24.787Z,100766.86
2018-01-15T14:44:50.737Z,100763.09
2018-01-15T14:47:17.502Z,100764.80
2018-01-15T14:49:44.333Z,100760.97
2018-01-15T14:52:11.114Z,100756.83
2018-01-15T14:54:36.958Z,100751.34
2018-01-15T14:57:02.791Z,100735.63
2018-01-15T14:59:28.610Z,100730.53
2018-01-15T15:01:55.525Z,100714.50
2018-01-15T15:04:22.130Z,100714.02
2018-01-15T15:06:47.974Z,100704.19
2018-01-15T15:09:13.778Z,100692.66
2018-01-15T15:11:40.125Z,100689.09
2018-01-15T15:14:06.878Z,100687.20
2018-01-15T15:16:33.705Z,100681.57
2018-01-15T15:19:00.325Z,100674.61
2018-01-15T15:21:26.210Z,100658.44
2018-01-15T15:23:52.844Z,100652.55
2018-01-15T15:26:18.773Z,100638.50
2018-01-15T15:28:44.582Z,100631.34
2018-01-15T15:31:11.241Z,100629.94
2018-01-15T15:33:37.198Z,100629.16
2018-01-15T15:36:04.046Z,100630.16
2018-01-15T15:38:29.922Z,100617.14
2018-01-15T15:40:56.811Z,100609.95
2018-01-15T15:43:23.537Z,100613.16
2018-01-15T15:45:49.343Z,100599.16
2018-01-15T15:48:16.102Z,100592.59
2018-01-15T15:50:42.895Z,100585.26
2018-01-15T15:53:08.702Z,100579.63
2018-01-15T15:55:34.546Z,100573.58
2018-01-15T15:58:01.128Z,100567.80
2018-01-15T16:00:26.981Z,100558.95
2018-01-15T16:02:52.831Z,100549.77
2018-01-15T16:05:18.637Z,100547.45
2018-01-15T16:07:44.465Z,100541.77
2018-01-15T16:10:10.276Z,100527.91
2018-01-15T16:12:36.096Z,100526.58
2018-01-15T16:15:01.911Z,100518.08
2018-01-15T16:17:27.717Z,100507.02
2018-01-15T16:19:53.601Z,100499.38
2018-01-15T16:22:25.590Z,100498.19
2018-01-15T16:24:51.413Z,100479.81
2018-01-15T16:27:18.114Z,100485.25
2018-01-15T16:29:43.921Z,100479.06
2018-01-15T16:32:10.754Z,100467.35
2018-01-15T16:34:36.733Z,100454.03
2018-01-15T16:37:02.588Z,100462.94
2018-01-15T16:39:28.418Z,100457.44
2018-01-15T16:41:54.348Z,100444.53
2018-01-15T16:44:20.214Z,100441.52
2018-01-15T16:46:46.009Z,100445.37
2018-01-15T16:49:11.858Z,100432.47
2018-01-15T16:51:37.686Z,100436.35
2018-01-15T16:54:03.566Z,100437.52
2018-01-15T16:56:29.410Z,100438.74
2018-01-15T16:58:55.288Z,100434.59
2018-01-15T17:01:21.095Z,100419.92
2018-01-15T17:03:46.902Z,100416.25
2018-01-15T17:06:13.494Z,100415.80
2018-01-15T17:08:40.458Z,100404.22
2018-01-15T17:11:06.257Z,100403.26
2018-01-15T17:13:32.066Z,100393.65
2018-01-15T17:15:57.912Z,100389.20
2018-01-15T17:18:23.713Z,100389.53
2018-01-15T17:20:49.542Z,100383.28
2018-01-15T17:23:15.433Z,100375.33
2018-01-15T17:25:41.234Z,100376.89
2018-01-15T17:28:07.078Z,100373.84
2018-01-15T17:30:32.917Z,100367.45
2018-01-15T17:32:59.582Z,100354.64
2018-01-15T17:35:25.409Z,100349.75
2018-01-15T17:37:52.077Z,100349.52
2018-01-15T17:40:17.884Z,100340.05
2018-01-15T17:42:43.704Z,100334.70
2018-01-15T17:45:09.545Z,100327.88
2018-01-15T17:47:35.356Z,100329.64
2018-01-15T17:50:01.168Z,100327.94
2018-01-15T17:52:26.979Z,100319.23
2018-01-15T17:54:52.782Z,100317.16
2018-01-15T17:57:19.425Z,100313.48
2018-01-15T17:59:45.229Z,100301.25
2018-01-15T18:02:11.136Z,100303.02
2018-01-15T18:04:37.027Z,100288.84
2018-01-15T18:07:02.935Z,100275.17
2018-01-15T18:09:28.781Z,100275.72
2018-01-15T18:11:55.478Z,100265.78
2018-01-15T18:14:21.281Z,100259.41
2018-01-15T18:16:47.125Z,100264.27
2018-01-15T18:19:12.986Z,100259.77
2018-01-15T18:21:38.826Z,100254.00
2018-01-15T18:24:04.705Z,100250.67
2018-01-15T18:26:31.509Z,100243.34
2018-01-15T18:28:58.246Z,100239.98
2018-01-15T18:31:25.073Z,100241.36
2018-01-15T18:33:50.906Z,100246.66
2018-01-15T18:36:16.714Z,100241.20
2018-01-15T18:38:42.581Z,100227.64
2018-01-15T18:41:08.409Z,100229.85
2018-01-15T18:43:34.289Z,100227.33
2018-01-15T18:46:00.134Z,100223.51
2018-01-15T18:48:25.944Z,100214.64
2018-01-15T18:50:51.793Z,100215.95
2018-01-15T18:53:18.461Z,100201.30
2018-01-15T18:55:44.269Z,100198.94
2018-01-15T18:58:10.079Z,100195.15
2018-01-15T19:00:36.042Z,100187.03
2018-01-15T19:03:01.849Z,100190.66
2018-01-15T19:05:27.718Z,100189.25
2018-01-15T19:07:53.666Z,100182.36
2018-01-15T19:10:19.510Z,100177.86
2018-01-15T19:12:46.290Z,100172.74
2018-01-15T19:15:12.134Z,100166.58
2018-01-15T19:17:38.817Z,100163.96
2018-01-15T19:20:05.557Z,100163.73
2018-01-15T19:22:31.830Z,100154.63
2018-01-15T19:24:57.784Z,100141.00
2018-01-15T19:27:23.614Z,100134.56
2018-01-15T19:29:49.478Z,100128.13
2018-01-15T19:32:15.297Z,100120.17
2018-01-15T19:34:47.130Z,100118.92
2018-01-15T19:40:12.348Z,100118.97
2018-01-15T19:42:38.180Z,100116.58
2018-01-15T19:45:11.097Z,100099.09
2018-01-15T19:47:43.105Z,100091.07
2018-01-15T19:50:15.151Z,100076.81
2018-01-15T19:52:47.016Z,100072.38
2018-01-15T19:55:19.103Z,100063.80
2018-01-15T19:57:51.065Z,100051.55
2018-01-15T20:00:23.081Z,100040.55
2018-01-15T20:02:55.301Z,100030.69
2018-01-15T20:05:27.215Z,100024.47
2018-01-15T20:08:00.311Z,100010.50
2018-01-15T20:10:33.338Z,99998.33
2018-01-15T20:12:59.163Z,99983.38
2018-01-15T20:15:24.983Z,99985.60
2018-01-15T20:17:50.790Z,99972.65
2018-01-15T20:20:16.633Z,99966.90
2018-01-15T20:22:42.641Z,99957.79
2018-01-15T20:25:08.447Z,99941.52
2018-01-15T20:27:34.271Z,99935.73
2018-01-15T20:30:00.885Z,99929.34
2018-01-15T20:32:27.623Z,99922.75
2018-01-15T20:34:53.590Z,99910.36
2018-01-15T20:37:19.785Z,99918.75
2018-01-15T20:39:45.639Z,99912.06
2018-01-15T20:42:11.442Z,99906.20
2018-01-15T20:44:37.251Z,99894.44
2018-01-15T20:47:03.062Z,99894.55
2018-01-15T20:49:28.869Z,99891.80
2018-01-15T20:51:54.670Z,99874.39
2018-01-15T20:54:20.519Z,99864.55
2018-01-15T20:56:46.323Z,99868.27
2018-01-15T20:59:12.130Z,99842.09
2018-01-15T21:01:38.007Z,99829.78
2018-01-15T21:04:03.809Z,99821.84
2018-01-15T21:06:29.651Z,99819.45
2018-01-15T21:08:56.435Z,99805.77
2018-01-15T21:11:22.241Z,99809.33
2018-01-15T21:13:49.102Z,99804.89
2018-01-15T21:16:14.910Z,99794.08
2018-01-15T21:18:40.838Z,99779.56
2018-01-15T21:21:06.710Z,99782.21
2018-01-15T21:23:32.525Z,99788.02
2018-01-15T21:25:58.334Z,99787.02
2018-01-15T21:28:24.301Z,99777.02
2018-01-15T21:30:50.107Z,99777.50
2018-01-15T21:33:16.026Z,99764.48
2018-01-15T21:35:41.870Z,99753.62
2018-01-15T21:38:08.403Z,99742.17
2018-01-15T21:40:34.273Z,99730.63
2018-01-15T21:43:00.147Z,99719.87
2018-01-15T21:45:27.866Z,99714.23
2018-01-15T21:47:54.843Z,99707.67
2018-01-15T21:50:20.651Z,99700.17
2018-01-15T21:52:47.317Z,99680.56
2018-01-15T21:55:13.118Z,99668.64
2018-01-15T21:57:38.961Z,99668.61
2018-01-15T22:00:04.908Z,99665.64
2018-01-15T22:02:31.737Z,99665.36
2018-01-15T22:04:58.369Z,99646.97
2018-01-15T22:07:24.226Z,99649.36
2018-01-15T22:09:50.043Z,99645.42
2018-01-15T22:12:15.888Z,99641.72
2018-01-15T22:14:41.745Z,99644.63
2018-01-15T22:17:07.754Z,99637.92
2018-01-15T22:19:33.597Z,99637.16
2018-01-15T22:21:59.417Z,99632.73
2018-01-15T22:24:25.266Z,99635.30
2018-01-15T22:26:51.085Z,99636.59
2018-01-15T22:29:16.894Z,99638.39
2018-01-15T22:31:42.745Z,99640.51
2018-01-15T22:34:09.486Z,99618.88
2018-01-15T22:36:35.337Z,99613.48
2018-01-15T22:39:01.185Z,99602.69
2018-01-15T22:41:26.995Z,99596.09
2018-01-15T22:43:52.842Z,99592.81
2018-01-15T22:46:18.677Z,99582.60
2018-01-15T22:48:45.450Z,99557.49
2018-01-15T22:51:12.225Z,99557.84
2018-01-15T22:53:39.070Z,99541.67
2018-01-15T22:56:05.933Z,99535.22
2018-01-15T22:58:31.746Z,99533.17
2018-01-15T23:00:57.594Z,99528.39
2018-01-15T23:03:23.398Z,99528.17
2018-01-15T23:05:50.077Z,99514.06
2018-01-15T23:08:16.850Z,99513.69
2018-01-15T23:10:42.730Z,99517.08
2018-01-15T23:13:08.570Z,99499.16
2018-01-15T23:15:34.377Z,99504.28
2018-01-15T23:18:00.214Z,99492.87
2018-01-15T23:20:26.017Z,99490.13
2018-01-15T23:22:51.818Z,99489.70
2018-01-15T23:25:17.622Z,99474.07
2018-01-15T23:27:43.424Z,99462.73
2018-01-15T23:30:09.262Z,99451.59
2018-01-15T23:32:36.033Z,99450.25
2018-01-15T23:35:01.840Z,99441.33
2018-01-15T23:37:27.645Z,99440.47
2018-01-15T23:39:53.444Z,99437.52
2018-01-15T23:42:19.242Z,99433.29
2018-01-15T23:44:45.051Z,99425.25
2018-01-15T23:47:10.867Z,99421.24
2018-01-15T23:49:36.661Z,99409.66
2018-01-15T23:52:02.458Z,99412.66
2018-01-15T23:54:32.182Z,99398.08
2018-01-15T23:56:57.977Z,99386.16
2018-01-15T23:59:23.777Z,99385.72
